Time;durP1;ratioP1;P1;durP2;ratioP2;P2;SDS_P1;SDS_P2;PMS_P1;PMS_P2;Temp;Humidity;BMP_temperature;BMP_pressure;BME280_temperature;BME280_humidity;BME280_pressure;Samples;Min_cycle;Max_cycle;Signal;HPM_P1;HPM_P2
2023/05/21 00:00:29;;;;;;;;;;;;;;;20.92;47.78;101512.88;4997243;28;4252;-68
2023/05/21 00:02:57;;;;;;;;;;;;;;;20.90;47.77;101512.78;5002036;28;4503;-69
2023/05/21 00:05:24;;;;;;;;;;;;;;;20.92;47.95;101521.53;5008664;28;4716;-69
2023/05/21 00:07:53;;;;;;;;;;;;;;;20.91;47.69;101507.75;5002278;28;4111;-69
2023/05/21 00:10:20;;;;;;;;;;;;;;;20.91;47.94;101510.63;5006917;28;4186;-68
2023/05/21 00:12:46;;;;;;;;;;;;;;;20.91;47.78;101505.63;5006147;28;4466;-69
2023/05/21 00:15:12;;;;;;;;;;;;;;;20.90;47.73;101509.16;5006114;28;4212;-68
2023/05/21 00:17:39;;;;;;;;;;;;;;;20.89;47.77;101505.53;4998088;28;3909;-68
2023/05/21 00:20:08;;;;;;;;;;;;;;;20.90;47.81;101498.38;5002067;28;4270;-68
2023/05/21 00:22:35;;;;;;;;;;;;;;;20.90;47.86;101512.78;5007784;28;4337;-68
2023/05/21 00:25:01;;;;;;;;;;;;;;;20.89;47.92;101508.41;5006419;28;4206;-69
2023/05/21 00:27:28;;;;;;;;;;;;;;;20.88;47.80;101501.13;5004357;28;4620;-69
2023/05/21 00:29:54;;;;;;;;;;;;;;;20.88;48.03;101501.13;5008587;28;3990;-69
2023/05/21 00:32:21;;;;;;;;;;;;;;;20.88;47.96;101503.28;5017971;28;4538;-69
2023/05/21 00:34:47;;;;;;;;;;;;;;;20.86;47.94;101501.03;4999621;28;4136;-69
2023/05/21 00:37:14;;;;;;;;;;;;;;;20.87;47.76;101502.53;5006262;28;4449;-69
2023/05/21 00:39:40;;;;;;;;;;;;;;;20.86;47.82;101501.03;5002231;28;3971;-69
2023/05/21 00:42:06;;;;;;;;;;;;;;;20.85;47.79;101499.53;5001100;28;3966;-69
2023/05/21 00:44:34;;;;;;;;;;;;;;;20.86;48.04;101501.03;5003933;28;3985;-69
2023/05/21 00:47:02;;;;;;;;;;;;;;;20.85;47.99;101505.31;5006574;28;4027;-69
2023/05/21 00:49:29;;;;;;;;;;;;;;;20.84;47.98;101494.41;5010558;28;4066;-69
2023/05/21 00:51:55;;;;;;;;;;;;;;;20.84;48.01;101498.03;4997820;28;4421;-70
2023/05/21 00:54:22;;;;;;;;;;;;;;;20.84;47.96;101486.53;5004212;28;4222;-69
2023/05/21 00:56:48;;;;;;;;;;;;;;;20.84;48.09;101489.41;4999433;28;4526;-69
2023/05/21 00:59:15;;;;;;;;;;;;;;;20.83;47.82;101490.78;4998351;28;4578;-69
2023/05/21 01:01:44;;;;;;;;;;;;;;;20.82;47.90;101477.03;4991203;28;4225;-69
2023/05/21 01:04:11;;;;;;;;;;;;;;;20.84;47.96;101485.78;5002128;28;5175;-69
2023/05/21 01:06:37;;;;;;;;;;;;;;;20.82;48.01;101477.81;5001475;28;4198;-69
2023/05/21 01:09:05;;;;;;;;;;;;;;;20.82;47.66;101477.81;5002306;28;4146;-69
2023/05/21 01:11:35;;;;;;;;;;;;;;;20.82;48.04;101469.16;5006016;28;4032;-69
2023/05/21 01:14:01;;;;;;;;;;;;;;;20.81;47.85;101475.53;5001914;28;4066;-67
2023/05/21 01:16:27;;;;;;;;;;;;;;;20.82;47.80;101472.03;5007470;28;4485;-67
2023/05/21 01:18:54;;;;;;;;;;;;;;;20.81;48.03;101464.78;5007321;28;4224;-67
2023/05/21 01:21:21;;;;;;;;;;;;;;;20.81;47.83;101458.28;5017178;28;4465;-67
2023/05/21 01:23:48;;;;;;;;;;;;;;;20.82;47.91;101456.88;4997344;28;4094;-67
2023/05/21 01:26:14;;;;;;;;;;;;;;;20.83;47.99;101461.28;5013980;28;4140;-67
2023/05/21 01:28:41;;;;;;;;;;;;;;;20.82;48.26;101462.63;5006895;28;4086;-68
2023/05/21 01:31:15;;;;;;;;;;;;;;;20.82;48.18;101466.28;5007780;28;5313;-68
2023/05/21 01:33:44;;;;;;;;;;;;;;;20.82;48.33;101465.50;5013368;28;4541;-68
2023/05/21 01:36:14;;;;;;;;;;;;;;;20.81;48.34;101467.66;4996692;28;5751;-69
2023/05/21 01:38:59;;;;;;;;;;;;;;;20.81;48.23;101470.53;5014091;28;4009;-69
2023/05/21 01:41:25;;;;;;;;;;;;;;;20.80;48.46;101456.78;5009584;28;4379;-68
2023/05/21 01:43:52;;;;;;;;;;;;;;;20.80;48.51;101460.41;5008642;28;3956;-68
2023/05/21 01:46:19;;;;;;;;;;;;;;;20.79;48.54;101458.91;5016289;28;4312;-68
2023/05/21 01:48:45;;;;;;;;;;;;;;;20.80;48.61;101456.78;5004621;28;4225;-69
2023/05/21 01:51:12;;;;;;;;;;;;;;;20.79;48.38;101450.28;4997073;28;4121;-68
2023/05/21 01:57:31;;;;;;;;;;;;;;;20.77;48.72;101444.41;4991034;28;5160;-68
2023/05/21 01:59:58;;;;;;;;;;;;;;;20.77;48.41;101455.91;4997123;28;4163;-68
2023/05/21 02:02:24;;;;;;;;;;;;;;;20.78;48.29;101457.44;5019232;28;4959;-68
2023/05/21 02:04:51;;;;;;;;;;;;;;;20.77;48.40;101447.28;5007025;28;4283;-69
2023/05/21 02:07:17;;;;;;;;;;;;;;;20.75;48.35;101452.91;5010015;28;4104;-68
2023/05/21 02:09:43;;;;;;;;;;;;;;;20.76;48.52;101445.81;5010304;28;4361;-69
2023/05/21 02:12:10;;;;;;;;;;;;;;;20.77;48.48;101455.16;5003792;28;4115;-68
2023/05/21 02:14:37;;;;;;;;;;;;;;;20.75;48.47;101450.03;5010448;28;4164;-68
2023/05/21 02:17:03;;;;;;;;;;;;;;;20.74;48.46;101447.81;5009133;28;4494;-68
2023/05/21 02:19:30;;;;;;;;;;;;;;;20.75;48.58;101444.28;5023298;28;4580;-68
2023/05/21 02:21:56;;;;;;;;;;;;;;;20.76;48.32;101447.94;5008167;28;4206;-68
2023/05/21 02:24:23;;;;;;;;;;;;;;;20.74;48.46;101439.94;5011129;28;4018;-67
2023/05/21 02:26:50;;;;;;;;;;;;;;;20.75;48.42;101435.66;5003264;28;4349;-68
2023/05/21 02:29:16;;;;;;;;;;;;;;;20.72;48.34;101428.31;5010621;28;4087;-68
2023/05/21 02:31:43;;;;;;;;;;;;;;;20.73;48.32;101435.56;5006354;28;4515;-69
2023/05/21 02:34:09;;;;;;;;;;;;;;;20.73;48.20;101424.06;5008662;28;4395;-68
2023/05/21 02:36:36;;;;;;;;;;;;;;;20.73;48.24;101434.81;5010408;28;4001;-68
2023/05/21 02:39:03;;;;;;;;;;;;;;;20.71;48.46;101430.44;5010755;28;4120;-68
2023/05/21 02:41:29;;;;;;;;;;;;;;;20.72;48.32;101428.31;5004886;28;4275;-68
2023/05/21 02:43:56;;;;;;;;;;;;;;;20.71;48.47;101424.69;5009045;28;4124;-68
2023/05/21 02:46:22;;;;;;;;;;;;;;;20.71;48.55;101423.94;5002583;28;4168;-68
2023/05/21 02:48:50;;;;;;;;;;;;;;;20.71;48.38;101426.81;5000769;28;4060;-68
2023/05/21 02:51:16;;;;;;;;;;;;;;;20.71;48.33;101421.81;5005348;28;4198;-68
2023/05/21 02:53:43;;;;;;;;;;;;;;;20.71;48.32;101421.06;5016684;28;4223;-69
2023/05/21 02:56:11;;;;;;;;;;;;;;;20.70;48.45;101420.31;5005209;28;4022;-68
2023/05/21 02:58:37;;;;;;;;;;;;;;;20.70;48.35;101408.06;5005532;28;4223;-68
2023/05/21 03:01:04;;;;;;;;;;;;;;;20.70;48.34;101408.78;5009622;28;4035;-67
2023/05/21 03:03:31;;;;;;;;;;;;;;;20.71;48.43;101418.19;5006639;28;4033;-68
2023/05/21 03:05:57;;;;;;;;;;;;;;;20.71;48.42;101421.06;5007084;28;4391;-68
2023/05/21 03:08:25;;;;;;;;;;;;;;;20.70;48.31;101405.91;5012386;28;4439;-68
2023/05/21 03:10:51;;;;;;;;;;;;;;;20.69;48.42;101418.06;5008430;28;4127;-68
2023/05/21 03:13:18;;;;;;;;;;;;;;;20.69;48.40;101412.31;5007136;28;4033;-68
2023/05/21 03:15:45;;;;;;;;;;;;;;;20.70;48.39;101408.06;5012922;28;4097;-68
2023/05/21 03:18:11;;;;;;;;;;;;;;;20.70;48.38;101413.81;5008046;28;5000;-68
2023/05/21 03:20:43;;;;;;;;;;;;;;;20.70;48.33;101410.94;5008126;28;4068;-67
2023/05/21 03:23:11;;;;;;;;;;;;;;;20.70;48.35;101419.56;5002939;28;4170;-67
2023/05/21 03:25:41;;;;;;;;;;;;;;;20.68;48.41;101422.31;5010884;28;4106;-68
2023/05/21 03:28:10;;;;;;;;;;;;;;;20.68;48.33;101414.47;5011617;28;5209;-68
2023/05/21 03:30:45;;;;;;;;;;;;;;;20.66;48.42;101414.34;5010742;28;4199;-69
2023/05/21 03:33:38;;;;;;;;;;;;;;;20.70;48.48;101419.56;5012762;28;4215;-70
2023/05/21 03:36:16;;;;;;;;;;;;;;;20.68;48.68;101413.69;5016023;28;4312;-70
2023/05/21 03:38:43;;;;;;;;;;;;;;;20.69;48.51;101418.06;5015791;28;4034;-70
2023/05/21 03:41:09;;;;;;;;;;;;;;;20.69;48.68;101415.19;5004909;28;4271;-70
2023/05/21 03:43:36;;;;;;;;;;;;;;;20.68;48.58;101420.22;4996048;28;4083;-70
2023/05/21 03:46:02;;;;;;;;;;;;;;;20.69;48.36;101420.97;5006783;28;4069;-70
2023/05/21 03:48:57;;;;;;;;;;;;;;;20.70;48.41;101419.56;5006614;28;4119;-70
2023/05/21 03:51:26;;;;;;;;;;;;;;;20.68;48.45;101413.69;5007093;28;5402;-70
2023/05/21 03:53:53;;;;;;;;;;;;;;;20.68;48.64;101416.56;5005801;28;4332;-69
2023/05/21 03:56:20;;;;;;;;;;;;;;;20.64;48.54;101411.34;5005185;28;4156;-70
2023/05/21 03:58:47;;;;;;;;;;;;;;;20.67;48.46;101417.97;5004042;28;4057;-70
2023/05/21 04:01:13;;;;;;;;;;;;;;;20.67;48.48;101415.84;5010470;28;4036;-72
2023/05/21 04:03:39;;;;;;;;;;;;;;;20.67;48.58;101421.59;5012723;28;4133;-71
2023/05/21 04:06:08;;;;;;;;;;;;;;;20.67;48.62;101432.34;5004288;28;4138;-72
2023/05/21 04:08:36;;;;;;;;;;;;;;;20.66;48.40;101420.09;5013803;28;5238;-71
2023/05/21 04:11:03;;;;;;;;;;;;;;;20.67;48.41;101423.72;5005944;28;4045;-71
2023/05/21 04:13:29;;;;;;;;;;;;;;;20.66;48.42;101419.34;5004817;28;4123;-71
2023/05/21 04:15:56;;;;;;;;;;;;;;;20.67;48.62;101426.59;5003776;28;4048;-71
2023/05/21 04:18:24;;;;;;;;;;;;;;;20.66;48.53;101425.09;5011572;28;4359;-71
2023/05/21 04:20:51;;;;;;;;;;;;;;;20.67;48.58;101424.47;5003608;28;4235;-71
2023/05/21 04:23:17;;;;;;;;;;;;;;;20.66;48.64;101425.09;5023259;28;4349;-71
2023/05/21 04:25:49;;;;;;;;;;;;;;;20.65;48.62;101417.84;5004880;28;4079;-71
2023/05/21 04:28:19;;;;;;;;;;;;;;;20.64;48.48;101434.38;5022120;28;4205;-70
2023/05/21 04:30:46;;;;;;;;;;;;;;;20.67;48.59;101427.34;5003885;28;4072;-71
2023/05/21 04:33:16;;;;;;;;;;;;;;;20.68;48.65;101433.84;5005393;28;4140;-71
2023/05/21 04:35:45;;;;;;;;;;;;;;;20.67;48.37;101435.97;5005088;28;4155;-71
2023/05/21 04:38:11;;;;;;;;;;;;;;;20.67;48.55;101438.13;5003586;28;4153;-71
2023/05/21 04:40:38;;;;;;;;;;;;;;;20.66;48.47;101436.59;5006811;28;4110;-71
2023/05/21 04:43:04;;;;;;;;;;;;;;;20.68;48.22;101433.84;4999869;28;4164;-71
2023/05/21 04:45:31;;;;;;;;;;;;;;;20.66;48.44;101430.84;5024971;28;4311;-71
2023/05/21 04:47:59;;;;;;;;;;;;;;;20.68;48.43;101433.84;5015915;28;4094;-71
2023/05/21 04:50:29;;;;;;;;;;;;;;;20.67;48.28;101429.47;5018081;28;4011;-71
2023/05/21 04:52:57;;;;;;;;;;;;;;;20.65;48.58;101430.09;5007853;28;4201;-71
2023/05/21 04:55:24;;;;;;;;;;;;;;;20.66;48.46;101436.59;5025898;28;3904;-71
2023/05/21 04:57:51;;;;;;;;;;;;;;;20.67;48.47;101432.34;5007370;28;4110;-70
2023/05/21 05:00:18;;;;;;;;;;;;;;;20.68;48.55;101439.59;5007008;28;4139;-71
2023/05/21 05:02:45;;;;;;;;;;;;;;;20.67;48.50;101433.09;5006907;28;4241;-71
2023/05/21 05:05:11;;;;;;;;;;;;;;;20.67;48.42;101430.22;5010919;28;4194;-71
2023/05/21 05:07:38;;;;;;;;;;;;;;;20.66;48.67;101430.84;5008030;28;4392;-71
2023/05/21 05:10:04;;;;;;;;;;;;;;;20.66;48.51;101436.59;5015437;28;4034;-71
2023/05/21 05:12:31;;;;;;;;;;;;;;;20.67;48.49;101441.00;5014051;28;3976;-71
2023/05/21 05:14:58;;;;;;;;;;;;;;;20.65;48.56;101427.22;5009077;28;5176;-71
2023/05/21 05:17:26;;;;;;;;;;;;;;;20.66;48.49;101437.38;5015515;28;4073;-71
2023/05/21 05:19:52;;;;;;;;;;;;;;;20.66;48.27;101437.38;5007340;28;4782;-72
2023/05/21 05:22:19;;;;;;;;;;;;;;;20.66;48.53;101436.59;5007738;28;4219;-71
2023/05/21 05:24:45;;;;;;;;;;;;;;;20.66;48.45;101437.38;5024511;28;4051;-71
2023/05/21 05:27:12;;;;;;;;;;;;;;;20.66;48.27;101433.72;5006655;28;4032;-71
2023/05/21 05:29:38;;;;;;;;;;;;;;;20.66;48.53;101448.13;5011469;28;4762;-72
2023/05/21 05:32:05;;;;;;;;;;;;;;;20.64;48.29;101433.63;5004442;28;4136;-72
2023/05/21 05:34:31;;;;;;;;;;;;;;;20.66;48.39;101436.59;5011278;28;3948;-71
2023/05/21 05:36:58;;;;;;;;;;;;;;;20.65;48.40;101438.00;5009223;28;4117;-70
2023/05/21 05:39:24;;;;;;;;;;;;;;;20.65;48.29;101440.88;5019161;28;4033;-71
2023/05/21 05:41:51;;;;;;;;;;;;;;;20.66;48.41;101436.59;5003601;28;4078;-71
2023/05/21 05:44:17;;;;;;;;;;;;;;;20.65;48.38;101444.50;5022191;28;3974;-71
2023/05/21 05:46:44;;;;;;;;;;;;;;;20.66;48.31;101433.72;5004163;28;4050;-71
2023/05/21 05:49:10;;;;;;;;;;;;;;;20.66;48.29;101436.59;5006902;28;4205;-71
2023/05/21 05:51:38;;;;;;;;;;;;;;;20.66;48.41;101436.59;5004707;28;4154;-71
2023/05/21 05:54:04;;;;;;;;;;;;;;;20.66;48.33;101436.59;5002663;28;4101;-71
2023/05/21 05:56:32;;;;;;;;;;;;;;;20.66;48.42;101436.59;5005977;28;3990;-71
2023/05/21 05:58:58;;;;;;;;;;;;;;;20.66;48.24;101442.34;5005210;28;4259;-71
2023/05/21 06:01:25;;;;;;;;;;;;;;;20.66;48.45;101442.34;5025351;28;4879;-70
2023/05/21 06:03:51;;;;;;;;;;;;;;;20.66;48.25;101430.84;5016080;28;4246;-71
2023/05/21 06:06:18;;;;;;;;;;;;;;;20.65;48.25;101438.00;5015775;28;4246;-71
2023/05/21 06:08:45;;;;;;;;;;;;;;;20.65;48.49;101440.88;4991106;28;4098;-71
2023/05/21 06:11:15;;;;;;;;;;;;;;;20.65;48.43;101438.00;5003562;28;4996;-71
2023/05/21 06:13:42;;;;;;;;;;;;;;;20.64;48.41;101439.41;5005798;28;4195;-70
2023/05/21 06:16:09;;;;;;;;;;;;;;;20.65;48.29;101438.75;5011390;28;3985;-71
2023/05/21 06:18:36;;;;;;;;;;;;;;;20.65;48.23;101435.84;4988670;28;4156;-71
2023/05/21 06:21:02;;;;;;;;;;;;;;;20.65;48.27;101435.13;4994434;28;4484;-71
2023/05/21 06:23:31;;;;;;;;;;;;;;;20.64;48.46;101434.38;5005489;28;4260;-71
2023/05/21 06:25:58;;;;;;;;;;;;;;;20.64;48.26;101428.63;5011508;28;4596;-71
2023/05/21 06:28:25;;;;;;;;;;;;;;;20.64;48.33;101420.00;5005136;28;4523;-71
2023/05/21 06:30:52;;;;;;;;;;;;;;;20.65;48.51;101424.34;5033933;28;4301;-71
2023/05/21 06:33:19;;;;;;;;;;;;;;;20.65;48.43;101435.13;5014468;28;3965;-71
2023/05/21 06:35:45;;;;;;;;;;;;;;;20.64;48.31;101434.38;5012237;28;4400;-71
2023/05/21 06:38:12;;;;;;;;;;;;;;;20.58;48.38;101427.53;5026183;28;4242;-69
2023/05/21 06:40:39;;;;;;;;;;;;;;;20.62;48.46;101424.91;5008679;28;4494;-64
2023/05/21 06:43:10;;;;;;;;;;;;;;;20.65;48.42;101424.34;5006598;28;4485;-64
2023/05/21 06:46:11;;;;;;;;;;;;;;;20.67;48.70;101415.09;4939582;28;4223;-63
2023/05/21 06:48:39;;;;;;;;;;;;;;;20.67;48.90;101421.59;4989742;28;4082;-64
2023/05/21 06:51:05;;;;;;;;;;;;;;;20.63;48.82;101415.59;5011165;28;4136;-63
2023/05/21 06:53:32;;;;;;;;;;;;;;;20.69;48.87;101426.72;5005618;28;4153;-65
2023/05/21 06:55:59;;;;;;;;;;;;;;;20.73;49.21;101423.28;5005375;28;4232;-64
2023/05/21 06:58:33;;;;;;;;;;;;;;;20.74;48.78;101428.41;5014718;28;4142;-64
2023/05/21 07:01:00;;;;;;;;;;;;;;;20.75;49.55;101418.38;5000573;28;5013;-64
2023/05/21 07:03:27;;;;;;;;;;;;;;;20.75;49.65;101414.75;5017202;28;4128;-64
2023/05/21 07:05:54;;;;;;;;;;;;;;;20.74;49.48;101414.03;5002547;28;4097;-68
2023/05/21 07:08:21;;;;;;;;;;;;;;;20.97;49.04;101415.22;5008943;28;4219;-68
2023/05/21 07:10:47;;;;;;;;;;;;;;;21.10;49.63;101420.25;5018867;28;4257;-69
2023/05/21 07:13:16;;;;;;;;;;;;;;;20.97;50.81;101421.72;5021046;28;4257;-65
2023/05/21 07:15:43;;;;;;;;;;;;;;;20.90;51.02;101419.91;5003585;28;4155;-67
2023/05/21 07:18:10;;;;;;;;;;;;;;;20.86;50.85;101420.41;4997815;28;5068;-66
2023/05/21 07:20:37;;;;;;;;;;;;;;;20.87;50.84;101421.94;5020519;28;4281;-66
2023/05/21 07:23:05;;;;;;;;;;;;;;;20.85;50.96;101418.94;5005255;28;4516;-65
2023/05/21 07:25:32;;;;;;;;;;;;;;;20.84;50.58;101420.31;5008022;28;4345;-66
2023/05/21 07:27:58;;;;;;;;;;;;;;;20.84;50.40;101411.69;5009481;28;4195;-66
2023/05/21 07:30:25;;;;;;;;;;;;;;;20.83;50.30;101415.97;5016688;28;4038;-66
2023/05/21 07:32:52;;;;;;;;;;;;;;;20.82;50.36;101407.94;5006055;28;4558;-66
2023/05/21 07:35:18;;;;;;;;;;;;;;;20.82;50.21;101408.72;5015940;28;4416;-66
2023/05/21 07:37:46;;;;;;;;;;;;;;;20.82;50.13;101413.72;5001158;28;4358;-66
2023/05/21 07:40:13;;;;;;;;;;;;;;;20.82;49.72;101414.47;5008957;28;4189;-66
2023/05/21 07:42:41;;;;;;;;;;;;;;;20.82;49.74;101414.47;5021648;28;3985;-66
2023/05/21 07:45:07;;;;;;;;;;;;;;;20.81;49.85;101410.09;5016559;28;5348;-66
2023/05/21 07:47:39;;;;;;;;;;;;;;;20.81;49.85;101407.22;5005532;28;4033;-66
2023/05/21 07:50:05;;;;;;;;;;;;;;;20.82;49.81;101407.94;5006044;28;4141;-65
2023/05/21 07:52:32;;;;;;;;;;;;;;;20.79;50.25;101409.22;5012384;28;5061;-65
2023/05/21 07:55:00;;;;;;;;;;;;;;;20.80;50.40;101408.59;5004165;28;4206;-65
2023/05/21 07:57:29;;;;;;;;;;;;;;;20.80;51.57;101408.59;5006937;28;3960;-71
2023/05/21 07:59:59;;;;;;;;;;;;;;;20.86;52.74;101408.91;5004216;28;4064;-66
2023/05/21 08:02:27;;;;;;;;;;;;;;;20.85;53.42;101403.81;5002945;28;4040;-66
2023/05/21 08:04:53;;;;;;;;;;;;;;;20.89;54.00;101401.91;5002920;28;4225;-67
2023/05/21 08:07:20;;;;;;;;;;;;;;;20.84;56.05;101388.66;5013958;28;4341;-66
2023/05/21 08:09:47;;;;;;;;;;;;;;;20.90;55.66;101400.50;5008007;28;4261;-67
2023/05/21 08:12:14;;;;;;;;;;;;;;;20.91;56.09;101389.72;5005377;28;4207;-66
2023/05/21 08:14:42;;;;;;;;;;;;;;;20.93;56.09;101395.59;5000031;28;4315;-68
2023/05/21 08:17:10;;;;;;;;;;;;;;;20.90;56.86;101391.84;5002319;28;4844;-66
2023/05/21 08:19:36;;;;;;;;;;;;;;;20.93;56.27;101390.56;5006552;28;4104;-67
2023/05/21 08:22:05;;;;;;;;;;;;;;;20.95;56.77;101394.97;5011541;28;3981;-67
2023/05/21 08:24:32;;;;;;;;;;;;;;;20.96;56.16;101394.31;5012369;28;4218;-66
2023/05/21 08:27:00;;;;;;;;;;;;;;;20.92;56.54;101397.72;5008297;28;3981;-66
2023/05/21 08:29:28;;;;;;;;;;;;;;;20.95;56.79;101392.06;5013555;28;4214;-66
2023/05/21 08:31:55;;;;;;;;;;;;;;;21.00;56.27;101393.78;5010077;28;4049;-67
2023/05/21 08:34:22;;;;;;;;;;;;;;;21.01;56.90;101389.53;5019319;28;4176;-67
2023/05/21 08:36:59;;;;;;;;;;;;;;;20.99;56.74;101395.91;5010004;28;4128;-66
2023/05/21 08:40:05;;;;;;;;;;;;;;;21.04;56.67;101388.22;4996198;28;4241;-66
2023/05/21 08:42:41;;;;;;;;;;;;;;;21.03;56.67;101392.50;5011534;28;4102;-67
2023/05/21 08:45:13;;;;;;;;;;;;;;;21.00;56.61;101394.50;5010693;28;4339;-66
2023/05/21 08:47:40;;;;;;;;;;;;;;;20.99;56.47;101393.03;5033452;28;4309;-67
2023/05/21 08:50:12;;;;;;;;;;;;;;;20.98;56.30;101397.31;4980718;28;5323;-66
2023/05/21 08:52:38;;;;;;;;;;;;;;;20.98;56.09;101396.53;5021488;28;4215;-66
2023/05/21 08:55:05;;;;;;;;;;;;;;;20.98;55.84;101394.44;5006892;28;3996;-66
2023/05/21 08:57:32;;;;;;;;;;;;;;;20.98;55.83;101403.06;5016647;28;4047;-66
2023/05/21 09:00:00;;;;;;;;;;;;;;;20.98;55.53;101390.78;4993536;28;4122;-67
2023/05/21 09:02:29;;;;;;;;;;;;;;;20.99;55.28;101403.81;5014196;28;3963;-67
2023/05/21 09:04:56;;;;;;;;;;;;;;;20.99;55.38;101395.16;5013675;28;4065;-66
2023/05/21 09:07:23;;;;;;;;;;;;;;;20.99;55.05;101395.16;5013987;28;4187;-67
2023/05/21 09:10:18;;;;;;;;;;;;;;;21.00;55.05;101393.78;4990494;28;6264;-66
2023/05/21 09:12:44;;;;;;;;;;;;;;;21.01;55.11;101395.28;4987254;28;4065;-67
2023/05/21 09:15:11;;;;;;;;;;;;;;;21.00;55.06;101382.25;4988209;28;4508;-66
2023/05/21 09:17:37;;;;;;;;;;;;;;;21.00;55.00;101393.78;4989165;28;4045;-66
2023/05/21 09:20:23;;;;;;;;;;;;;;;21.01;54.99;101392.41;5009246;28;4510;-67
2023/05/21 09:22:54;;;;;;;;;;;;;;;21.01;54.88;101389.53;5006911;28;4493;-66
2023/05/21 09:25:22;;;;;;;;;;;;;;;21.00;54.70;101380.13;5048800;28;4238;-66
2023/05/21 09:27:48;;;;;;;;;;;;;;;21.00;54.69;101374.34;5029819;28;4117;-66
2023/05/21 09:30:16;;;;;;;;;;;;;;;21.01;54.66;101373.00;5012912;28;4629;-66
2023/05/21 09:32:43;;;;;;;;;;;;;;;21.03;54.70;101378.13;5012834;28;4067;-67
2023/05/21 09:35:11;;;;;;;;;;;;;;;21.02;54.57;101371.59;5038372;28;4533;-66
2023/05/21 09:37:38;;;;;;;;;;;;;;;21.04;54.54;101370.97;5037227;28;3937;-66
2023/05/21 09:40:11;;;;;;;;;;;;;;;21.03;54.37;101370.22;5005715;28;4221;-66
2023/05/21 09:42:47;;;;;;;;;;;;;;;21.05;54.37;101370.31;5037753;28;4175;-66
2023/05/21 09:45:17;;;;;;;;;;;;;;;21.05;54.38;101378.19;5041212;28;4158;-66
2023/05/21 09:47:43;;;;;;;;;;;;;;;21.05;54.18;101367.44;5009431;28;4029;-67
2023/05/21 09:50:10;;;;;;;;;;;;;;;21.05;54.25;101363.78;5010824;28;4103;-67
2023/05/21 09:52:37;;;;;;;;;;;;;;;21.07;54.03;101367.56;5014293;28;4151;-66
2023/05/21 09:55:13;;;;;;;;;;;;;;;21.07;54.05;101364.69;5008167;28;4151;-66
2023/05/21 09:57:42;;;;;;;;;;;;;;;21.07;54.23;101364.69;5006621;28;4325;-66
2023/05/21 10:00:16;;;;;;;;;;;;;;;21.08;54.17;101365.41;5012044;28;4440;-66
2023/05/21 10:02:46;;;;;;;;;;;;;;;21.08;54.04;101354.63;5005500;28;4135;-67
2023/05/21 10:05:13;;;;;;;;;;;;;;;21.09;53.80;101367.63;5013555;28;4168;-71
2023/05/21 10:07:40;;;;;;;;;;;;;;;21.10;54.11;101348.25;5010360;28;4435;-66
2023/05/21 10:10:07;;;;;;;;;;;;;;;21.10;53.97;101351.84;5001700;28;4203;-66
2023/05/21 10:12:33;;;;;;;;;;;;;;;21.12;53.77;101348.34;5005301;28;3969;-66
2023/05/21 10:15:02;;;;;;;;;;;;;;;21.13;53.89;101349.81;5005525;28;4177;-66
2023/05/21 10:17:28;;;;;;;;;;;;;;;21.11;53.97;101330.31;5004062;28;4556;-66
2023/05/21 10:19:55;;;;;;;;;;;;;;;21.12;53.65;101345.47;5004069;28;4170;-67
2023/05/21 10:22:22;;;;;;;;;;;;;;;21.12;53.79;101336.84;5002653;28;4207;-66
2023/05/21 10:24:49;;;;;;;;;;;;;;;21.13;53.46;101338.31;5000180;28;4133;-66
2023/05/21 10:27:15;;;;;;;;;;;;;;;21.15;53.65;101341.28;5002279;28;4044;-66
2023/05/21 10:29:42;;;;;;;;;;;;;;;21.14;53.60;101345.53;5002231;28;4037;-66
2023/05/21 10:32:09;;;;;;;;;;;;;;;21.14;53.68;101328.28;5001599;28;4148;-66
2023/05/21 10:34:36;;;;;;;;;;;;;;;21.15;53.61;101320.41;4999509;28;4495;-66
2023/05/21 10:37:02;;;;;;;;;;;;;;;21.14;53.46;101328.28;5001831;28;4469;-66
2023/05/21 10:39:29;;;;;;;;;;;;;;;21.14;53.29;101322.50;5003179;28;4205;-66
2023/05/21 10:42:02;;;;;;;;;;;;;;;21.16;53.46;101325.50;5003658;28;4185;-67
2023/05/21 10:44:32;;;;;;;;;;;;;;;21.16;53.28;101308.22;5002198;28;4055;-66
2023/05/21 10:47:03;;;;;;;;;;;;;;;21.16;53.23;101322.63;5003931;28;4506;-67
2023/05/21 10:49:29;;;;;;;;;;;;;;;21.17;53.17;101308.97;5002873;28;4146;-66
2023/05/21 10:52:00;;;;;;;;;;;;;;;21.14;53.24;101305.22;4996984;28;4252;-65
2023/05/21 10:54:32;;;;;;;;;;;;;;;21.20;52.95;101308.44;5004829;28;4052;-66
2023/05/21 10:56:58;;;;;;;;;;;;;;;21.28;52.99;101305.97;4990494;28;4379;-66
2023/05/21 10:59:35;;;;;;;;;;;;;;;21.28;53.30;101305.97;5004000;28;4145;-66
2023/05/21 11:02:01;;;;;;;;;;;;;;;21.29;53.63;101310.31;5008304;28;4158;-67
2023/05/21 11:04:28;;;;;;;;;;;;;;;21.29;53.81;101303.81;5005277;28;4313;-66
2023/05/21 11:06:55;;;;;;;;;;;;;;;21.30;53.59;101299.53;5007207;28;4204;-66
2023/05/21 11:09:21;;;;;;;;;;;;;;;21.29;53.68;101295.19;5008694;28;4001;-67
2023/05/21 11:11:51;;;;;;;;;;;;;;;21.28;53.95;101297.31;5017617;28;4358;-67
2023/05/21 11:14:27;;;;;;;;;;;;;;;21.32;53.60;101296.75;5003604;28;4171;-66
2023/05/21 11:16:53;;;;;;;;;;;;;;;21.31;53.55;101296.03;5003293;28;4131;-67
2023/05/21 11:19:20;;;;;;;;;;;;;;;21.33;53.71;101298.25;5006187;28;4023;-66
2023/05/21 11:21:50;;;;;;;;;;;;;;;21.32;53.59;101300.38;5002215;28;4006;-67
2023/05/21 11:24:19;;;;;;;;;;;;;;;21.34;53.51;101291.84;5005490;28;4159;-66
2023/05/21 11:26:54;;;;;;;;;;;;;;;21.36;53.62;101302.00;5002240;28;4159;-66
2023/05/21 11:29:20;;;;;;;;;;;;;;;21.41;53.70;101292.91;5008669;28;4119;-66
2023/05/21 11:31:47;;;;;;;;;;;;;;;21.56;53.19;101299.38;5001379;28;4150;-66
2023/05/21 11:34:13;;;;;;;;;;;;;;;21.63;52.70;101290.38;5001867;28;4072;-66
2023/05/21 11:36:41;;;;;;;;;;;;;;;21.77;52.76;101286.69;5008083;28;4051;-65
2023/05/21 11:39:11;;;;;;;;;;;;;;;21.81;52.47;101281.13;4992490;28;4062;-65
2023/05/21 11:41:52;;;;;;;;;;;;;;;21.84;51.88;101279.81;5006700;28;4103;-66
2023/05/21 11:44:38;;;;;;;;;;;;;;;22.05;51.61;101285.13;5000738;28;4019;-69
2023/05/21 11:47:05;;;;;;;;;;;;;;;22.72;49.21;101284.53;5001035;28;4174;-71
2023/05/21 11:49:32;;;;;;;;;;;;;;;22.35;50.35;101279.28;5004644;28;4055;-71
2023/05/21 11:51:58;;;;;;;;;;;;;;;22.52;49.78;101286.53;5012784;28;4284;-70
2023/05/21 11:54:25;;;;;;;;;;;;;;;22.34;50.10;101287.19;5015550;28;4180;-67
2023/05/21 11:56:52;;;;;;;;;;;;;;;22.09;51.34;101299.72;5007227;28;4123;-74
2023/05/21 11:59:18;;;;;;;;;;;;;;;21.96;51.78;101289.75;5013624;28;3959;-80
2023/05/21 12:01:45;;;;;;;;;;;;;;;21.87;52.25;101296.53;5006483;28;4106;-74
2023/05/21 12:04:12;;;;;;;;;;;;;;;21.81;52.54;101292.66;5009697;28;4096;-74
2023/05/21 12:06:41;;;;;;;;;;;;;;;21.77;52.53;101292.44;5008929;28;4076;-76
2023/05/21 12:09:10;;;;;;;;;;;;;;;21.74;52.73;101301.00;5008693;28;4208;-75
2023/05/21 12:11:38;;;;;;;;;;;;;;;21.78;52.90;101288.91;5007591;28;4068;-75
2023/05/21 12:14:11;;;;;;;;;;;;;;;21.75;52.60;101284.44;5006437;28;4123;-75
2023/05/21 12:16:37;;;;;;;;;;;;;;;21.73;52.41;101287.97;5003257;28;4007;-71
2023/05/21 12:19:04;;;;;;;;;;;;;;;21.75;52.42;101285.19;5001562;28;4155;-71
2023/05/21 12:21:31;;;;;;;;;;;;;;;21.73;52.55;101285.09;5003899;28;4501;-70
2023/05/21 12:23:57;;;;;;;;;;;;;;;21.72;52.33;101274.97;5007828;28;4087;-70
2023/05/21 12:26:24;;;;;;;;;;;;;;;21.72;52.14;101277.84;5003927;28;4235;-69
2023/05/21 12:28:53;;;;;;;;;;;;;;;21.71;52.55;101279.22;5005635;28;4043;-70
2023/05/21 12:31:23;;;;;;;;;;;;;;;21.70;52.25;101277.75;5004319;28;4224;-70
2023/05/21 12:33:50;;;;;;;;;;;;;;;21.71;52.11;101275.59;5007724;28;4323;-70
2023/05/21 12:36:25;;;;;;;;;;;;;;;21.70;52.21;101271.97;5003567;28;4214;-70
2023/05/21 12:38:52;;;;;;;;;;;;;;;21.69;52.05;101275.50;5005171;28;4061;-70
2023/05/21 12:41:18;;;;;;;;;;;;;;;21.68;52.08;101269.00;5006503;28;4181;-68
2023/05/21 12:43:45;;;;;;;;;;;;;;;21.70;52.06;101271.25;4994984;28;4464;-67
2023/05/21 12:46:13;;;;;;;;;;;;;;;21.67;52.08;101279.06;5003084;28;4211;-68
2023/05/21 12:48:41;;;;;;;;;;;;;;;21.69;52.05;101264.75;5004577;28;4203;-68
2023/05/21 12:51:07;;;;;;;;;;;;;;;21.67;52.25;101270.41;4999248;28;4003;-68
2023/05/21 12:53:37;;;;;;;;;;;;;;;21.67;52.18;101267.53;5005463;28;4206;-68
2023/05/21 12:56:07;;;;;;;;;;;;;;;21.66;52.13;101266.00;5006190;28;4064;-69